BFT weather

Beaufort County Airport
Beaufort, South Carolina, United States

Public forecast

Using degrees Fahrenheit for public forecast. Weather courtesy of forecast.io.

Current aviation weather report (METAR) for Beaufort County Airport

Retrieved 2020/02/17 15:35 UTC (0 seconds ago):

KARW 171535Z AUTO 05007KT 7SM OVC007 12/11 A3016 RMK AO2

Closest aviation forecast (TAF) to Beaufort County Airport

Forecast is more than 12 hours old.

Closest forecast is Beaufort MCAS - Merritt Field, 6.0 nm (11.0 km) NW. Retrieved 2013/06/20 09:07 UTC (7 years ago):

TAF COR KNBC 200900Z 2009/2109 VRB06KT 9999 SCT010 BKN030 QNH3001INS TEMPO 2009/2012 00000KT 2400 BR BKN010 FM201200 VRB06KT 9999 FEW020 SCT050 QNH3004 FM201600 05007KT 9999 VCSH SCT030 BKN070 QNH3008INS TEMPO 2018/2100 05010KT 3200 SHRA BR BKN025 T28/2019Z T22/2109Z 1103